Aeroporto :
LOGIN :

Iscrizione | Disclaimer

   EN    FR    IT 

 










Sommario :    VFR   VFR Marginale   IFR   IFR Intensivo   IFR Molto Intensivo
Visibilità : 
Base nubi : 
>= 8 km
>= 3000ft
5 / 8 km
1000 / 3000 ft
1500m / 5 km
500 / 1000 ft
800 / 1500m
200 / 500 ft
< 800m
< 200 ft
Simboli :   Temporali  Nebbia  Neve Forte  Precipitazioni Forti  Vento > 20 kt
SIGMETs :   Varie  Temporali  Ghiacco  Turbolenza  Onda orograficha  Ceneri Vulcaniche






- Altitudine del aeroporto : 299 ft
- Codice IATA : EDM


LFRI - La Roche Sur Yon - Les Ajoncs

ULTIMO METAR :
  • 181900Z AUTO 05009KT CAVOK 06/03 Q1026 NOSIG

METARs OBSOLETI :
  • 181830Z AUTO 05009KT CAVOK 06/03 Q1026 NOSIG
  • 181800Z AUTO 05008KT CAVOK 06/03 Q1025 NOSIG
  • 181730Z AUTO 05010KT CAVOK 06/03 Q1025 NOSIG
  • 181700Z AUTO 06006KT CAVOK 06/03 Q1025 NOSIG
  • 181630Z AUTO 07007KT CAVOK 07/04 Q1025 NOSIG

TAF TAF LFRI
Valido dal 18 a 18 ore il 19 a 18 ore UTC


181700Z 1818/1918 05012KT CAVOK
PROB30
TEMPO 1900/1909 BKN008
TEMPO 1910/1918 04015G25KT



MetMap, La meteo Aeronautica in un colpo d'occhio ! - Copyright ORBIFLY Dicembre 2007 - Disclaimer

ORBIFLY MET'MAP TEAM :

Programmazione e sviluppo : Alexandra Zaïnal
Concezione : Baudouin d'Aumeries
Aiuto per la programmazione : Marc-Olivier Méhu
Supporto tecnico e logistico : Manuel Goepfert
Aiuto per la traduzione : Arnaldo La Scala

Contatto : metmap@orbifly.com




FONTI E CREDITI :

   NOAA